sensor_id;sensor_type;location;lat;lon;timestamp;pressure;altitude;pressure_sealevel;temperature;humidity
11174;BME280;5643;50.856;12.088;2022-08-20T00:01:22;99328.22;;;25.58;93.46
11174;BME280;5643;50.856;12.088;2022-08-20T00:03:51;99332.22;;;25.42;93.51
11174;BME280;5643;50.856;12.088;2022-08-20T00:06:22;99333.09;;;25.29;97.12
11174;BME280;5643;50.856;12.088;2022-08-20T00:08:51;99333.19;;;25.47;92.39
11174;BME280;5643;50.856;12.088;2022-08-20T00:11:23;99327.88;;;25.10;94.93
11174;BME280;5643;50.856;12.088;2022-08-20T00:13:54;99319.91;;;25.03;96.77
11174;BME280;5643;50.856;12.088;2022-08-20T00:16:24;99312.44;;;25.12;94.35
11174;BME280;5643;50.856;12.088;2022-08-20T00:18:54;99315.94;;;25.43;93.41
11174;BME280;5643;50.856;12.088;2022-08-20T00:21:22;99320.84;;;25.46;94.15
11174;BME280;5643;50.856;12.088;2022-08-20T00:23:52;99316.78;;;25.44;93.28
11174;BME280;5643;50.856;12.088;2022-08-20T00:26:24;99323.50;;;25.22;94.66
11174;BME280;5643;50.856;12.088;2022-08-20T00:28:52;99316.09;;;25.24;93.50
11174;BME280;5643;50.856;12.088;2022-08-20T00:31:22;99319.31;;;25.32;95.46
11174;BME280;5643;50.856;12.088;2022-08-20T00:33:52;99317.19;;;25.41;93.87
11174;BME280;5643;50.856;12.088;2022-08-20T00:36:20;99320.47;;;25.43;94.02
11174;BME280;5643;50.856;12.088;2022-08-20T00:38:50;99318.72;;;25.62;90.91
11174;BME280;5643;50.856;12.088;2022-08-20T00:41:24;99319.88;;;25.72;90.64
11174;BME280;5643;50.856;12.088;2022-08-20T00:44:04;99326.38;;;25.83;89.51
11174;BME280;5643;50.856;12.088;2022-08-20T00:46:33;99333.25;;;25.41;93.96
11174;BME280;5643;50.856;12.088;2022-08-20T00:49:04;99321.66;;;25.54;93.00
11174;BME280;5643;50.856;12.088;2022-08-20T00:51:36;99322.06;;;25.82;91.06
11174;BME280;5643;50.856;12.088;2022-08-20T00:54:10;99323.38;;;25.73;90.59
11174;BME280;5643;50.856;12.088;2022-08-20T00:56:43;99315.72;;;25.45;89.80
11174;BME280;5643;50.856;12.088;2022-08-20T00:59:17;99315.28;;;25.17;93.29
11174;BME280;5643;50.856;12.088;2022-08-20T01:01:47;99312.84;;;25.15;95.56
11174;BME280;5643;50.856;12.088;2022-08-20T01:04:17;99309.78;;;25.12;96.01
11174;BME280;5643;50.856;12.088;2022-08-20T01:06:45;99322.28;;;25.49;93.72
11174;BME280;5643;50.856;12.088;2022-08-20T01:09:13;99317.81;;;25.74;89.30
11174;BME280;5643;50.856;12.088;2022-08-20T01:11:43;99318.72;;;25.86;88.24
11174;BME280;5643;50.856;12.088;2022-08-20T01:14:14;99316.28;;;25.54;92.15
11174;BME280;5643;50.856;12.088;2022-08-20T01:16:55;99322.75;;;25.71;92.96
11174;BME280;5643;50.856;12.088;2022-08-20T01:19:34;99324.44;;;25.65;91.17
11174;BME280;5643;50.856;12.088;2022-08-20T01:22:06;99328.75;;;25.35;94.75
11174;BME280;5643;50.856;12.088;2022-08-20T01:24:49;99325.06;;;25.67;91.32
11174;BME280;5643;50.856;12.088;2022-08-20T01:30:28;99320.13;;;25.33;93.95
11174;BME280;5643;50.856;12.088;2022-08-20T01:32:57;99310.50;;;25.25;95.63
11174;BME280;5643;50.856;12.088;2022-08-20T01:35:25;99323.34;;;24.59;98.36
11174;BME280;5643;50.856;12.088;2022-08-20T01:37:54;99320.25;;;24.62;99.78
11174;BME280;5643;50.856;12.088;2022-08-20T01:40:37;99319.84;;;24.58;100.00
11174;BME280;5643;50.856;12.088;2022-08-20T01:43:12;99319.19;;;24.70;100.00
11174;BME280;5643;50.856;12.088;2022-08-20T01:49:32;99317.00;;;25.04;96.25
11174;BME280;5643;50.856;12.088;2022-08-20T01:52:06;99320.59;;;24.79;99.68
11174;BME280;5643;50.856;12.088;2022-08-20T01:54:35;99324.44;;;24.32;100.00
11174;BME280;5643;50.856;12.088;2022-08-20T01:57:07;99325.69;;;24.23;100.00
11174;BME280;5643;50.856;12.088;2022-08-20T01:59:38;99320.66;;;25.10;98.09
11174;BME280;5643;50.856;12.088;2022-08-20T02:03:26;99327.22;;;25.45;94.52
11174;BME280;5643;50.856;12.088;2022-08-20T02:05:47;99334.84;;;25.48;93.06
11174;BME280;5643;50.856;12.088;2022-08-20T02:08:15;99337.47;;;25.24;94.69
11174;BME280;5643;50.856;12.088;2022-08-20T02:10:43;99340.25;;;24.40;100.00
11174;BME280;5643;50.856;12.088;2022-08-20T02:13:13;99336.66;;;24.66;100.00
11174;BME280;5643;50.856;12.088;2022-08-20T02:15:42;99339.41;;;24.39;100.00
11174;BME280;5643;50.856;12.088;2022-08-20T02:18:13;99343.13;;;25.02;94.83
11174;BME280;5643;50.856;12.088;2022-08-20T02:20:42;99339.97;;;24.61;99.69
11174;BME280;5643;50.856;12.088;2022-08-20T02:23:12;99335.19;;;24.76;99.36
11174;BME280;5643;50.856;12.088;2022-08-20T02:25:44;99345.38;;;24.35;100.00
11174;BME280;5643;50.856;12.088;2022-08-20T02:28:16;99349.91;;;24.98;99.47
11174;BME280;5643;50.856;12.088;2022-08-20T02:30:48;99347.00;;;25.07;97.16
11174;BME280;5643;50.856;12.088;2022-08-20T02:33:20;99343.19;;;25.27;96.11
11174;BME280;5643;50.856;12.088;2022-08-20T02:35:49;99348.91;;;25.37;94.09
11174;BME280;5643;50.856;12.088;2022-08-20T02:38:25;99346.13;;;25.51;92.05
11174;BME280;5643;50.856;12.088;2022-08-20T02:40:53;99346.75;;;25.59;91.25
11174;BME280;5643;50.856;12.088;2022-08-20T02:43:21;99337.50;;;24.66;99.19
11174;BME280;5643;50.856;12.088;2022-08-20T02:45:49;99336.16;;;25.01;95.77
11174;BME280;5643;50.856;12.088;2022-08-20T02:48:19;99340.03;;;24.99;95.30
11174;BME280;5643;50.856;12.088;2022-08-20T02:50:50;99338.38;;;25.42;94.34
11174;BME280;5643;50.856;12.088;2022-08-20T02:53:19;99335.81;;;25.61;91.07
11174;BME280;5643;50.856;12.088;2022-08-20T02:55:49;99338.59;;;25.41;93.37
11174;BME280;5643;50.856;12.088;2022-08-20T02:58:18;99339.19;;;25.43;92.24
11174;BME280;5643;50.856;12.088;2022-08-20T03:00:48;99336.28;;;24.62;98.30
11174;BME280;5643;50.856;12.088;2022-08-20T03:03:17;99339.09;;;24.80;96.23
11174;BME280;5643;50.856;12.088;2022-08-20T03:05:49;99345.81;;;24.05;100.00
11174;BME280;5643;50.856;12.088;2022-08-20T03:08:19;99335.09;;;24.51;100.00
11174;BME280;5643;50.856;12.088;2022-08-20T03:10:50;99338.88;;;24.82;99.74
11174;BME280;5643;50.856;12.088;2022-08-20T03:13:22;99335.47;;;25.13;96.13
11174;BME280;5643;50.856;12.088;2022-08-20T03:15:52;99336.16;;;24.95;99.87
11174;BME280;5643;50.856;12.088;2022-08-20T03:18:22;99339.13;;;25.56;93.11
11174;BME280;5643;50.856;12.088;2022-08-20T03:24:34;99332.56;;;25.14;94.38
11174;BME280;5643;50.856;12.088;2022-08-20T03:27:05;99338.88;;;25.26;94.67
11174;BME280;5643;50.856;12.088;2022-08-20T03:29:36;99331.72;;;25.20;95.71
11174;BME280;5643;50.856;12.088;2022-08-20T03:32:04;99334.88;;;25.42;94.15
11174;BME280;5643;50.856;12.088;2022-08-20T03:34:33;99335.72;;;24.34;99.92
11174;BME280;5643;50.856;12.088;2022-08-20T03:37:01;99326.00;;;25.17;94.35
11174;BME280;5643;50.856;12.088;2022-08-20T03:39:29;99329.41;;;24.92;92.65
11174;BME280;5643;50.856;12.088;2022-08-20T03:41:56;99332.53;;;25.21;94.89
11174;BME280;5643;50.856;12.088;2022-08-20T03:44:26;99333.75;;;25.25;92.61
11174;BME280;5643;50.856;12.088;2022-08-20T03:46:56;99332.66;;;24.94;94.25
11174;BME280;5643;50.856;12.088;2022-08-20T03:49:23;99330.81;;;25.01;95.20
11174;BME280;5643;50.856;12.088;2022-08-20T03:51:51;99341.66;;;25.13;93.80
11174;BME280;5643;50.856;12.088;2022-08-20T03:54:59;99341.19;;;24.65;98.52
11174;BME280;5643;50.856;12.088;2022-08-20T03:57:58;99336.88;;;24.64;97.46
11174;BME280;5643;50.856;12.088;2022-08-20T04:00:33;99342.53;;;25.00;95.82
11174;BME280;5643;50.856;12.088;2022-08-20T04:03:01;99336.16;;;25.01;96.13
11174;BME280;5643;50.856;12.088;2022-08-20T04:06:07;99340.34;;;25.22;94.37
11174;BME280;5643;50.856;12.088;2022-08-20T04:08:39;99352.50;;;25.18;94.38
11174;BME280;5643;50.856;12.088;2022-08-20T04:11:07;99341.59;;;25.20;95.96
11174;BME280;5643;50.856;12.088;2022-08-20T04:17:15;99351.91;;;25.16;94.73
11174;BME280;5643;50.856;12.088;2022-08-20T04:19:43;99357.31;;;25.41;93.67
11174;BME280;5643;50.856;12.088;2022-08-20T04:22:15;99353.59;;;25.42;93.63
11174;BME280;5643;50.856;12.088;2022-08-20T04:24:43;99356.59;;;25.21;93.92
11174;BME280;5643;50.856;12.088;2022-08-20T04:27:12;99359.81;;;24.91;97.29
11174;BME280;5643;50.856;12.088;2022-08-20T04:29:49;99362.41;;;23.81;100.00
11174;BME280;5643;50.856;12.088;2022-08-20T04:32:24;99362.81;;;24.57;100.00
11174;BME280;5643;50.856;12.088;2022-08-20T04:34:52;99357.25;;;25.16;93.52
11174;BME280;5643;50.856;12.088;2022-08-20T04:37:20;99360.00;;;25.34;95.30
11174;BME280;5643;50.856;12.088;2022-08-20T04:43:45;99358.41;;;24.82;99.97
11174;BME280;5643;50.856;12.088;2022-08-20T04:46:20;99370.59;;;25.16;95.86
11174;BME280;5643;50.856;12.088;2022-08-20T04:48:51;99373.66;;;25.20;96.21
11174;BME280;5643;50.856;12.088;2022-08-20T04:51:20;99373.53;;;25.08;98.60
11174;BME280;5643;50.856;12.088;2022-08-20T04:53:48;99368.69;;;25.30;94.12
11174;BME280;5643;50.856;12.088;2022-08-20T04:56:16;99375.63;;;25.37;90.73
11174;BME280;5643;50.856;12.088;2022-08-20T04:58:49;99376.75;;;24.59;100.00
11174;BME280;5643;50.856;12.088;2022-08-20T05:01:17;99377.25;;;25.00;98.45
11174;BME280;5643;50.856;12.088;2022-08-20T05:03:46;99377.06;;;24.95;98.01
11174;BME280;5643;50.856;12.088;2022-08-20T05:06:16;99371.91;;;25.00;98.36
11174;BME280;5643;50.856;12.088;2022-08-20T05:08:44;99376.34;;;25.20;96.54
11174;BME280;5643;50.856;12.088;2022-08-20T05:11:12;99380.97;;;25.44;93.26
11174;BME280;5643;50.856;12.088;2022-08-20T05:13:40;99381.78;;;25.00;96.92
11174;BME280;5643;50.856;12.088;2022-08-20T05:16:11;99383.72;;;25.24;96.44
11174;BME280;5643;50.856;12.088;2022-08-20T05:18:42;99386.13;;;24.94;97.45
11174;BME280;5643;50.856;12.088;2022-08-20T05:21:17;99385.59;;;25.24;96.19
11174;BME280;5643;50.856;12.088;2022-08-20T05:23:46;99394.00;;;25.27;95.67
11174;BME280;5643;50.856;12.088;2022-08-20T05:26:16;99394.41;;;25.24;96.54
11174;BME280;5643;50.856;12.088;2022-08-20T05:28:45;99389.56;;;25.08;98.27
11174;BME280;5643;50.856;12.088;2022-08-20T05:31:14;99387.28;;;25.12;97.52
11174;BME280;5643;50.856;12.088;2022-08-20T05:33:42;99378.97;;;25.33;92.16
11174;BME280;5643;50.856;12.088;2022-08-20T05:36:09;99390.53;;;25.20;96.50
11174;BME280;5643;50.856;12.088;2022-08-20T05:38:39;99389.13;;;24.34;100.00
11174;BME280;5643;50.856;12.088;2022-08-20T05:41:07;99380.81;;;24.81;100.00
11174;BME280;5643;50.856;12.088;2022-08-20T05:43:40;99388.09;;;25.57;95.80
11174;BME280;5643;50.856;12.088;2022-08-20T05:46:08;99388.69;;;25.14;97.90
11174;BME280;5643;50.856;12.088;2022-08-20T05:48:38;99392.88;;;25.41;97.74
11174;BME280;5643;50.856;12.088;2022-08-20T05:51:06;99383.66;;;25.37;95.23
11174;BME280;5643;50.856;12.088;2022-08-20T05:53:34;99383.41;;;25.45;94.53
11174;BME280;5643;50.856;12.088;2022-08-20T05:56:05;99391.78;;;25.18;97.68
11174;BME280;5643;50.856;12.088;2022-08-20T05:58:33;99387.25;;;25.18;98.68
11174;BME280;5643;50.856;12.088;2022-08-20T06:01:01;99387.75;;;24.95;100.00
11174;BME280;5643;50.856;12.088;2022-08-20T06:03:29;99396.53;;;25.54;96.35
11174;BME280;5643;50.856;12.088;2022-08-20T06:06:14;99396.94;;;25.13;99.52
11174;BME280;5643;50.856;12.088;2022-08-20T06:08:43;99395.66;;;25.28;98.27
11174;BME280;5643;50.856;12.088;2022-08-20T06:11:12;99399.44;;;25.45;97.29
11174;BME280;5643;50.856;12.088;2022-08-20T06:13:40;99401.66;;;25.86;94.28
11174;BME280;5643;50.856;12.088;2022-08-20T06:16:07;99402.44;;;25.69;96.31
11174;BME280;5643;50.856;12.088;2022-08-20T06:18:35;99397.72;;;25.64;96.40
11174;BME280;5643;50.856;12.088;2022-08-20T06:21:03;99396.09;;;25.63;97.66
11174;BME280;5643;50.856;12.088;2022-08-20T06:23:32;99404.31;;;25.62;97.82
11174;BME280;5643;50.856;12.088;2022-08-20T06:25:59;99406.44;;;25.84;94.66
11174;BME280;5643;50.856;12.088;2022-08-20T06:28:28;99404.13;;;25.50;97.87
11174;BME280;5643;50.856;12.088;2022-08-20T06:30:56;99402.38;;;25.75;94.74
11174;BME280;5643;50.856;12.088;2022-08-20T06:33:25;99406.13;;;25.99;94.48
11174;BME280;5643;50.856;12.088;2022-08-20T06:35:55;99407.31;;;26.03;94.36
11174;BME280;5643;50.856;12.088;2022-08-20T06:38:26;99408.41;;;25.96;95.33
11174;BME280;5643;50.856;12.088;2022-08-20T06:40:58;99410.69;;;26.17;94.52
11174;BME280;5643;50.856;12.088;2022-08-20T06:43:28;99409.44;;;25.95;96.29
11174;BME280;5643;50.856;12.088;2022-08-20T06:45:56;99415.22;;;25.92;96.20
11174;BME280;5643;50.856;12.088;2022-08-20T06:48:24;99411.25;;;26.01;96.08
11174;BME280;5643;50.856;12.088;2022-08-20T06:50:52;99407.19;;;26.23;94.79
11174;BME280;5643;50.856;12.088;2022-08-20T06:53:23;99411.59;;;26.11;94.52
11174;BME280;5643;50.856;12.088;2022-08-20T06:55:53;99411.28;;;25.69;100.00
11174;BME280;5643;50.856;12.088;2022-08-20T06:58:22;99420.56;;;25.92;96.37
11174;BME280;5643;50.856;12.088;2022-08-20T07:00:51;99422.66;;;25.58;99.44
11174;BME280;5643;50.856;12.088;2022-08-20T07:03:19;99423.75;;;26.07;95.78
11174;BME280;5643;50.856;12.088;2022-08-20T07:05:47;99424.34;;;25.84;97.60
11174;BME280;5643;50.856;12.088;2022-08-20T07:08:16;99427.72;;;25.73;99.00
11174;BME280;5643;50.856;12.088;2022-08-20T07:10:47;99428.78;;;25.65;100.00
11174;BME280;5643;50.856;12.088;2022-08-20T07:13:22;99430.00;;;25.69;99.48
11174;BME280;5643;50.856;12.088;2022-08-20T07:15:51;99425.22;;;25.78;98.72
11174;BME280;5643;50.856;12.088;2022-08-20T07:18:20;99432.25;;;25.72;98.56
11174;BME280;5643;50.856;12.088;2022-08-20T07:20:49;99434.41;;;25.88;96.97
11174;BME280;5643;50.856;12.088;2022-08-20T07:23:16;99435.88;;;25.84;97.28
11174;BME280;5643;50.856;12.088;2022-08-20T07:25:45;99438.91;;;25.57;99.28
11174;BME280;5643;50.856;12.088;2022-08-20T07:28:15;99433.03;;;25.79;99.46
11174;BME280;5643;50.856;12.088;2022-08-20T07:30:44;99430.88;;;26.19;96.31
11174;BME280;5643;50.856;12.088;2022-08-20T07:33:45;99439.31;;;26.23;94.72
11174;BME280;5643;50.856;12.088;2022-08-20T07:36:13;99437.94;;;26.39;94.23
11174;BME280;5643;50.856;12.088;2022-08-20T07:38:41;99439.59;;;26.08;96.29
11174;BME280;5643;50.856;12.088;2022-08-20T07:41:11;99434.94;;;26.28;95.02
11174;BME280;5643;50.856;12.088;2022-08-20T07:43:40;99439.41;;;25.78;97.43
11174;BME280;5643;50.856;12.088;2022-08-20T07:46:10;99440.13;;;26.23;96.27
11174;BME280;5643;50.856;12.088;2022-08-20T07:48:39;99439.22;;;26.54;93.39
11174;BME280;5643;50.856;12.088;2022-08-20T07:51:14;99443.59;;;26.30;95.77
11174;BME280;5643;50.856;12.088;2022-08-20T07:53:44;99448.53;;;26.52;95.34
11174;BME280;5643;50.856;12.088;2022-08-20T07:56:15;99451.50;;;26.44;97.21
11174;BME280;5643;50.856;12.088;2022-08-20T07:58:46;99446.69;;;26.70;93.82
11174;BME280;5643;50.856;12.088;2022-08-20T08:01:15;99460.31;;;26.69;93.93
11174;BME280;5643;50.856;12.088;2022-08-20T08:03:43;99458.31;;;26.64;94.73
11174;BME280;5643;50.856;12.088;2022-08-20T08:06:13;99459.38;;;26.82;94.07
11174;BME280;5643;50.856;12.088;2022-08-20T08:08:41;99456.50;;;26.58;95.71
11174;BME280;5643;50.856;12.088;2022-08-20T08:11:10;99454.59;;;26.65;94.26
11174;BME280;5643;50.856;12.088;2022-08-20T08:13:40;99462.47;;;26.60;96.17
11174;BME280;5643;50.856;12.088;2022-08-20T08:16:30;99458.81;;;26.98;93.22
11174;BME280;5643;50.856;12.088;2022-08-20T08:19:00;99460.44;;;26.99;89.32
11174;BME280;5643;50.856;12.088;2022-08-20T08:21:29;99467.72;;;26.49;95.96
11174;BME280;5643;50.856;12.088;2022-08-20T08:24:10;99460.56;;;26.86;93.78
11174;BME280;5643;50.856;12.088;2022-08-20T08:26:38;99465.16;;;26.60;96.11
11174;BME280;5643;50.856;12.088;2022-08-20T08:29:07;99462.72;;;26.52;97.02
11174;BME280;5643;50.856;12.088;2022-08-20T08:31:37;99462.88;;;26.57;96.26
11174;BME280;5643;50.856;12.088;2022-08-20T08:34:06;99463.47;;;26.41;97.78
11174;BME280;5643;50.856;12.088;2022-08-20T08:40:08;99469.56;;;26.98;94.37
11174;BME280;5643;50.856;12.088;2022-08-20T08:42:47;99479.22;;;27.17;92.31
11174;BME280;5643;50.856;12.088;2022-08-20T08:45:21;99467.91;;;27.33;90.81
11174;BME280;5643;50.856;12.088;2022-08-20T08:47:49;99460.59;;;27.04;93.23
11174;BME280;5643;50.856;12.088;2022-08-20T08:50:38;99466.91;;;27.46;91.81
11174;BME280;5643;50.856;12.088;2022-08-20T09:00:57;99470.22;;;27.78;90.69
11174;BME280;5643;50.856;12.088;2022-08-20T09:03:32;99472.56;;;27.86;90.02
11174;BME280;5643;50.856;12.088;2022-08-20T09:06:23;99468.91;;;28.10;88.29
11174;BME280;5643;50.856;12.088;2022-08-20T09:08:56;99466.44;;;28.09;88.57
11174;BME280;5643;50.856;12.088;2022-08-20T09:11:27;99460.75;;;28.17;89.87
11174;BME280;5643;50.856;12.088;2022-08-20T09:13:56;99461.94;;;28.32;89.50
11174;BME280;5643;50.856;12.088;2022-08-20T09:27:13;99474.88;;;28.77;85.82
11174;BME280;5643;50.856;12.088;2022-08-20T09:29:42;99475.44;;;28.79;87.19
11174;BME280;5643;50.856;12.088;2022-08-20T09:32:15;99473.88;;;29.18;83.74
11174;BME280;5643;50.856;12.088;2022-08-20T09:35:17;99475.63;;;29.12;83.31
11174;BME280;5643;50.856;12.088;2022-08-20T09:38:40;99478.22;;;29.07;82.75
11174;BME280;5643;50.856;12.088;2022-08-20T09:41:28;99472.25;;;28.94;85.25
11174;BME280;5643;50.856;12.088;2022-08-20T09:43:57;99472.03;;;29.07;83.45
11174;BME280;5643;50.856;12.088;2022-08-20T09:46:26;99471.63;;;29.27;82.17
11174;BME280;5643;50.856;12.088;2022-08-20T09:49:05;99471.94;;;29.53;81.22
11174;BME280;5643;50.856;12.088;2022-08-20T09:51:33;99469.56;;;29.57;79.65
11174;BME280;5643;50.856;12.088;2022-08-20T09:54:03;99466.50;;;29.93;79.65
11174;BME280;5643;50.856;12.088;2022-08-20T09:56:35;99469.59;;;30.47;76.72
11174;BME280;5643;50.856;12.088;2022-08-20T09:59:06;99464.88;;;30.42;77.43
11174;BME280;5643;50.856;12.088;2022-08-20T10:01:53;99465.81;;;30.48;78.57
11174;BME280;5643;50.856;12.088;2022-08-20T10:04:37;99465.53;;;30.83;75.85
11174;BME280;5643;50.856;12.088;2022-08-20T10:07:06;99470.94;;;30.66;79.64
11174;BME280;5643;50.856;12.088;2022-08-20T10:09:35;99465.88;;;30.70;78.05
11174;BME280;5643;50.856;12.088;2022-08-20T10:15:09;99462.19;;;30.76;72.85
11174;BME280;5643;50.856;12.088;2022-08-20T10:20:56;99467.44;;;30.49;77.32
11174;BME280;5643;50.856;12.088;2022-08-20T10:23:25;99461.50;;;30.47;77.53
11174;BME280;5643;50.856;12.088;2022-08-20T10:25:52;99463.63;;;30.83;72.58
11174;BME280;5643;50.856;12.088;2022-08-20T10:28:20;99461.31;;;31.09;75.22
11174;BME280;5643;50.856;12.088;2022-08-20T10:30:54;99465.16;;;30.96;75.60
11174;BME280;5643;50.856;12.088;2022-08-20T10:33:26;99458.69;;;31.14;75.67
11174;BME280;5643;50.856;12.088;2022-08-20T10:36:14;99456.19;;;30.90;76.25
11174;BME280;5643;50.856;12.088;2022-08-20T10:38:55;99450.84;;;31.12;74.60
11174;BME280;5643;50.856;12.088;2022-08-20T10:41:25;99459.00;;;31.17;74.64
11174;BME280;5643;50.856;12.088;2022-08-20T10:44:05;99459.75;;;30.58;70.54
11174;BME280;5643;50.856;12.088;2022-08-20T10:46:44;99464.13;;;30.80;76.94
11174;BME280;5643;50.856;12.088;2022-08-20T10:49:22;99471.84;;;30.72;75.15
11174;BME280;5643;50.856;12.088;2022-08-20T10:56:00;99466.94;;;30.35;76.70
11174;BME280;5643;50.856;12.088;2022-08-20T10:58:55;99475.06;;;30.07;79.77
11174;BME280;5643;50.856;12.088;2022-08-20T11:08:31;99464.72;;;30.32;78.57
11174;BME280;5643;50.856;12.088;2022-08-20T11:10:59;99467.53;;;30.21;80.04
11174;BME280;5643;50.856;12.088;2022-08-20T11:13:27;99472.28;;;30.47;80.44
11174;BME280;5643;50.856;12.088;2022-08-20T11:15:57;99465.97;;;30.58;78.11
11174;BME280;5643;50.856;12.088;2022-08-20T11:18:26;99484.19;;;30.51;78.24
11174;BME280;5643;50.856;12.088;2022-08-20T11:22:52;99481.88;;;30.43;77.94
11174;BME280;5643;50.856;12.088;2022-08-20T11:28:32;99494.47;;;30.21;78.89
11174;BME280;5643;50.856;12.088;2022-08-20T11:31:01;99489.97;;;30.43;78.59
11174;BME280;5643;50.856;12.088;2022-08-20T11:36:58;99485.72;;;30.80;73.80
11174;BME280;5643;50.856;12.088;2022-08-20T11:39:27;99484.16;;;30.84;75.37
11174;BME280;5643;50.856;12.088;2022-08-20T11:41:55;99478.75;;;30.84;73.95
11174;BME280;5643;50.856;12.088;2022-08-20T11:44:25;99485.84;;;31.07;75.03
11174;BME280;5643;50.856;12.088;2022-08-20T11:46:58;99482.47;;;31.00;75.51
11174;BME280;5643;50.856;12.088;2022-08-20T11:49:28;99484.56;;;30.93;70.01
11174;BME280;5643;50.856;12.088;2022-08-20T11:51:56;99485.41;;;30.60;72.55
11174;BME280;5643;50.856;12.088;2022-08-20T11:54:24;99486.69;;;30.74;75.98
11174;BME280;5643;50.856;12.088;2022-08-20T11:56:54;99476.91;;;30.35;75.54
11174;BME280;5643;50.856;12.088;2022-08-20T12:02:29;99491.75;;;30.87;74.42
11174;BME280;5643;50.856;12.088;2022-08-20T12:04:57;99486.22;;;30.77;73.29
11174;BME280;5643;50.856;12.088;2022-08-20T12:07:25;99479.44;;;30.41;75.51
11174;BME280;5643;50.856;12.088;2022-08-20T12:09:54;99487.22;;;30.55;76.93
11174;BME280;5643;50.856;12.088;2022-08-20T12:12:22;99480.41;;;30.69;75.21
11174;BME280;5643;50.856;12.088;2022-08-20T12:14:54;99475.34;;;30.72;76.18
11174;BME280;5643;50.856;12.088;2022-08-20T12:17:34;99479.88;;;31.05;72.46
11174;BME280;5643;50.856;12.088;2022-08-20T12:20:10;99472.13;;;30.92;76.09
11174;BME280;5643;50.856;12.088;2022-08-20T12:22:40;99478.13;;;31.16;72.18
11174;BME280;5643;50.856;12.088;2022-08-20T12:25:28;99465.94;;;31.35;74.02
11174;BME280;5643;50.856;12.088;2022-08-20T12:28:16;99475.72;;;31.41;73.26
11174;BME280;5643;50.856;12.088;2022-08-20T12:30:46;99472.09;;;31.52;71.01
11174;BME280;5643;50.856;12.088;2022-08-20T12:33:13;99473.56;;;31.60;67.75
11174;BME280;5643;50.856;12.088;2022-08-20T12:35:41;99475.63;;;31.31;70.49
11174;BME280;5643;50.856;12.088;2022-08-20T12:38:10;99468.56;;;31.30;69.81
11174;BME280;5643;50.856;12.088;2022-08-20T12:40:38;99478.97;;;30.61;74.19
11174;BME280;5643;50.856;12.088;2022-08-20T12:43:08;99466.09;;;31.23;70.93
11174;BME280;5643;50.856;12.088;2022-08-20T12:45:39;99475.31;;;30.89;72.93
11174;BME280;5643;50.856;12.088;2022-08-20T12:48:10;99469.28;;;31.42;74.09
11174;BME280;5643;50.856;12.088;2022-08-20T12:50:41;99473.56;;;31.38;68.40
11174;BME280;5643;50.856;12.088;2022-08-20T12:53:12;99475.50;;;30.82;72.38
11174;BME280;5643;50.856;12.088;2022-08-20T12:55:40;99472.03;;;31.47;68.27
11174;BME280;5643;50.856;12.088;2022-08-20T12:58:09;99476.06;;;31.23;63.59
11174;BME280;5643;50.856;12.088;2022-08-20T13:03:58;99481.66;;;31.38;65.49
11174;BME280;5643;50.856;12.088;2022-08-20T13:06:26;99481.88;;;31.15;70.26
11174;BME280;5643;50.856;12.088;2022-08-20T13:08:55;99484.22;;;31.28;67.55
11174;BME280;5643;50.856;12.088;2022-08-20T13:11:23;99484.47;;;30.38;67.00
11174;BME280;5643;50.856;12.088;2022-08-20T13:13:52;99487.16;;;29.48;69.16
11174;BME280;5643;50.856;12.088;2022-08-20T13:16:20;99488.34;;;30.42;72.01
11174;BME280;5643;50.856;12.088;2022-08-20T13:18:47;99482.28;;;31.23;70.02
11174;BME280;5643;50.856;12.088;2022-08-20T13:21:31;99488.16;;;30.82;65.12
11174;BME280;5643;50.856;12.088;2022-08-20T13:24:05;99486.59;;;30.02;65.67
11174;BME280;5643;50.856;12.088;2022-08-20T13:26:34;99488.16;;;30.15;64.13
11174;BME280;5643;50.856;12.088;2022-08-20T13:29:02;99485.22;;;30.17;59.00
11174;BME280;5643;50.856;12.088;2022-08-20T13:31:31;99487.03;;;30.11;64.24
11174;BME280;5643;50.856;12.088;2022-08-20T13:34:00;99481.53;;;31.28;62.86
11174;BME280;5643;50.856;12.088;2022-08-20T13:36:31;99477.25;;;31.54;60.48
11174;BME280;5643;50.856;12.088;2022-08-20T13:39:00;99479.38;;;31.30;57.32
11174;BME280;5643;50.856;12.088;2022-08-20T13:41:29;99480.44;;;31.07;57.38
11174;BME280;5643;50.856;12.088;2022-08-20T13:43:57;99479.88;;;31.27;59.41
11174;BME280;5643;50.856;12.088;2022-08-20T13:46:29;99480.59;;;31.01;56.04
11174;BME280;5643;50.856;12.088;2022-08-20T13:48:57;99474.78;;;30.70;57.17
11174;BME280;5643;50.856;12.088;2022-08-20T13:51:25;99471.59;;;31.12;57.04
11174;BME280;5643;50.856;12.088;2022-08-20T13:53:55;99471.38;;;30.97;64.66
11174;BME280;5643;50.856;12.088;2022-08-20T13:56:22;99462.00;;;31.21;65.63
11174;BME280;5643;50.856;12.088;2022-08-20T13:58:51;99461.56;;;31.07;67.64
11174;BME280;5643;50.856;12.088;2022-08-20T14:01:19;99463.13;;;31.25;66.27
11174;BME280;5643;50.856;12.088;2022-08-20T14:03:50;99462.13;;;31.31;63.44
11174;BME280;5643;50.856;12.088;2022-08-20T14:06:24;99467.44;;;30.49;65.53
11174;BME280;5643;50.856;12.088;2022-08-20T14:08:55;99463.81;;;29.65;61.27
11174;BME280;5643;50.856;12.088;2022-08-20T14:11:23;99473.31;;;31.01;60.90
11174;BME280;5643;50.856;12.088;2022-08-20T14:13:56;99471.34;;;30.58;61.61
11174;BME280;5643;50.856;12.088;2022-08-20T14:16:25;99463.16;;;30.86;67.60
11174;BME280;5643;50.856;12.088;2022-08-20T14:18:55;99463.69;;;30.88;63.43
11174;BME280;5643;50.856;12.088;2022-08-20T14:21:23;99462.13;;;31.09;63.44
11174;BME280;5643;50.856;12.088;2022-08-20T14:23:51;99473.31;;;31.01;65.16
11174;BME280;5643;50.856;12.088;2022-08-20T14:26:21;99474.94;;;30.80;65.17
11174;BME280;5643;50.856;12.088;2022-08-20T14:28:49;99479.28;;;30.65;67.33
11174;BME280;5643;50.856;12.088;2022-08-20T14:31:17;99474.78;;;30.37;69.64
11174;BME280;5643;50.856;12.088;2022-08-20T14:33:46;99467.41;;;30.32;70.10
11174;BME280;5643;50.856;12.088;2022-08-20T14:36:13;99465.13;;;30.24;68.50